Terminal Aerodrome Forecast
Issued by NWS Shreveport, LA

Home | Current Version | Previous Version | Text Only | Print | Product List | Glossary On
Versions: 1 2 3 4 5 6 7 8 9 10 11 12 13 14 15 16 17
000
FTUS44 KSHV 271145
TAFMLU
TAF
KMLU 271145Z 2712/2812 00000KT P6SM FEW006
      TEMPO 2712/2714 5SM BR BKN006
     FM271400 VRB03KT P6SM SCT007
     FM271600 08004KT P6SM SKC
     FM271800 08006KT P6SM SCT040
     FM280100 06003KT P6SM BKN250
     FM280600 05003KT P6SM SCT120 BKN150 OVC250=

USA.gov is the U.S. government's official web portal to all federal, state and local government web resources and services.